Naper, NE (68755)

2:51 PM CDT on April 28, 2015 (GMT -0500)
The O'Neill Municipal-Baker | | Change Station
CLOSE
Current Station
Airport
Location: O'Neill,
Elevation: 2031 ft
Nearby Weather Stations

Elev 2031 ft 42.47 °N, 98.69 °W | Updated 16 minutes ago

Partly Cloudy
Partly Cloudy
61 °F
Feels Like 61 °F
N
13
Wind Variable Wind from NNW
Gusts 21 mph

Today
High -- | Low -- °F
--% Chance of Precip.
Yesterday
High -- | Low -- °F
Precip. -- in
6:34 AM 8:33 PM
Waxing Gibbous, 76% visible
Pressure 30.23 in
Visibility 10.0 miles
Clouds Clear
Dew Point 39 °F
Humidity 45%
Rainfall 0.00 in
Snow Depth Not available.
UV 10 out of 12
Pollen 10.20 out of 12
Air Quality Not available.
Flu Activity Local Activity
METAR KONL 281935Z AUTO 33011G18KT 10SM CLR 16/04 A3023 RMK AO2 T01620041

More Conditions Fewer Conditions

Pressure 30.23 in
Visibility 10.0 miles
Clouds Clear
Dew Point 39 °F
Humidity 45%
Rainfall 0.00 in
Snow Depth Not available.
UV 10 out of 12
Pollen 10.20 out of 12
Air Quality Not available.
Flu Activity Local Activity
METAR KONL 281935Z AUTO 33011G18KT 10SM CLR 16/04 A3023 RMK AO2 T01620041

More Conditions Fewer Conditions

10-Day Weather Forecast

Almanac

Astronomy

Apr. 28, 2015 Rise Set
Actual Time
Civil Twilight
Nautical Twilight
Astronomical Twilight
Moon
Length of Visible Light
Length of Day
Tomorrow will be .
, % of the Moon is Illuminated

Today's Extremes

State Highs State Lows

Community

WunderPhotos

Upload Photos

1,817,741 photos uploaded!

WunderBlogs® & News

Nearby

Air Quality

  Air Quality AQ Index Pollutant
Not available.

Snow Depth

Station Depth Elevation

Earthquake Activity

City Distance Mag. Time & Date
Minimum magnitude displayed is 2.5.

Coastal Water Temperatures

Place Temperature

Stations

Nearby Weather Stations

Station Location Temp. Windchill Dew Point Humidity Wind Precip. Elev Updated Type